Time;durP1;ratioP1;P1;durP2;ratioP2;P2;SDS_P1;SDS_P2;PMS_P1;PMS_P2;Temp;Humidity;BMP_temperature;BMP_pressure;BME280_temperature;BME280_humidity;BME280_pressure;Samples;Min_cycle;Max_cycle;Signal;HPM_P1;HPM_P2
2021/11/07 00:02:18;;;;;;;15.68;9.75;;;;;;;2.48;100.00;97500.91;5111406;28;20396;-69
2021/11/07 00:04:46;;;;;;;58.67;9.77;;;;;;;2.60;100.00;97503.19;5093004;28;20442;-69
2021/11/07 00:07:18;;;;;;;25.20;9.95;;;;;;;2.45;100.00;97503.78;5093084;28;20481;-69
2021/11/07 00:12:15;;;;;;;20.92;9.93;;;;;;;2.58;100.00;97511.09;5110456;28;20496;-70
2021/11/07 00:14:41;;;;;;;18.50;10.27;;;;;;;2.72;100.00;97522.63;5090708;28;20582;-69
2021/11/07 00:17:06;;;;;;;23.63;9.93;;;;;;;2.82;100.00;97515.53;5092871;28;20846;-69
2021/11/07 00:19:36;;;;;;;20.37;9.87;;;;;;;2.70;100.00;97502.06;5092523;28;20386;-69
2021/11/07 00:22:19;;;;;;;16.63;10.07;;;;;;;2.77;100.00;97489.31;5093837;28;20553;-70
2021/11/07 00:24:50;;;;;;;14.55;9.98;;;;;;;2.73;100.00;97478.44;5109369;28;20747;-69
2021/11/07 00:27:23;;;;;;;15.10;10.48;;;;;;;2.68;100.00;97469.53;5092649;28;20390;-69
2021/11/07 00:30:08;;;;;;;17.60;9.43;;;;;;;2.84;100.00;97465.19;5092025;28;20607;-69
2021/11/07 00:37:46;;;;;;;20.38;9.85;;;;;;;2.68;100.00;97490.25;5083161;28;20387;-69
2021/11/07 00:45:27;;;;;;;14.80;10.00;;;;;;;2.57;100.00;97500.91;5111110;28;20406;-69
2021/11/07 00:50:33;;;;;;;13.75;9.75;;;;;;;2.67;100.00;97514.53;5112384;28;20811;-69
2021/11/07 00:56:00;;;;;;;18.80;9.82;;;;;;;2.65;100.00;97493.97;5046932;28;20488;-69
2021/11/07 00:58:39;;;;;;;16.45;9.93;;;;;;;2.76;100.00;97490.28;5092202;28;20574;-69
2021/11/07 01:01:10;;;;;;;19.38;10.40;;;;;;;2.85;100.00;97482.34;5091470;28;20428;-69
2021/11/07 01:03:36;;;;;;;13.48;8.75;;;;;;;2.78;100.00;97488.34;5095418;28;20448;-70
2021/11/07 01:06:02;;;;;;;12.70;9.05;;;;;;;2.58;100.00;97493.00;5093899;28;20420;-70
2021/11/07 01:08:27;;;;;;;11.63;8.82;;;;;;;2.55;100.00;97490.72;5100858;28;20897;-69
2021/11/07 01:10:54;;;;;;;14.37;8.97;;;;;;;2.47;100.00;97498.47;5091631;28;20401;-69
2021/11/07 01:13:19;;;;;;;11.13;8.05;;;;;;;2.34;100.00;97495.53;5092712;28;20866;-69
2021/11/07 01:15:45;;;;;;;9.82;7.80;;;;;;;2.52;100.00;97493.63;5094024;28;20399;-69
2021/11/07 01:18:11;;;;;;;10.63;8.53;;;;;;;2.67;99.95;97492.06;5103635;28;20803;-70
2021/11/07 01:20:36;;;;;;;11.13;8.30;;;;;;;2.61;100.00;97486.69;5092658;28;20394;-69
2021/11/07 01:25:31;;;;;;;10.77;8.30;;;;;;;2.23;100.00;97457.81;5111882;28;20479;-69
2021/11/07 01:27:58;;;;;;;10.52;7.82;;;;;;;2.23;100.00;97444.88;5111802;28;20388;-69
2021/11/07 01:30:26;;;;;;;9.48;7.38;;;;;;;2.30;100.00;97435.53;5089717;28;20421;-69
2021/11/07 01:33:01;;;;;;;10.53;7.73;;;;;;;2.34;100.00;97436.06;5091466;28;20475;-69
2021/11/07 01:35:36;;;;;;;9.20;7.70;;;;;;;2.33;100.00;97431.84;5091690;28;20485;-69
2021/11/07 01:38:14;;;;;;;10.35;7.93;;;;;;;2.41;100.00;97422.31;5104724;28;20388;-69
2021/11/07 01:41:25;;;;;;;8.75;7.57;;;;;;;2.24;100.00;97418.06;5110134;28;20441;-69
2021/11/07 01:43:29;;;;;;;9.82;7.88;;;;;;;2.37;100.00;97413.25;5100633;28;20875;-69
2021/11/07 01:46:24;;;;;;;11.02;8.38;;;;;;;2.40;100.00;97420.69;5090218;28;20410;-69
2021/11/07 01:48:50;;;;;;;10.57;7.95;;;;;;;2.38;100.00;97429.59;5093895;28;20468;-69
2021/11/07 01:51:16;;;;;;;10.32;8.02;;;;;;;2.33;100.00;97426.66;5094010;28;20436;-69
2021/11/07 01:53:44;;;;;;;10.60;8.15;;;;;;;2.45;100.00;97408.06;5095776;28;20389;-69
2021/11/07 01:56:12;;;;;;;11.20;8.23;;;;;;;2.48;100.00;97407.78;5095580;28;20452;-69
2021/11/07 01:58:39;;;;;;;11.35;8.43;;;;;;;2.57;99.93;97418.09;5095181;28;20386;-70
2021/11/07 02:01:05;;;;;;;11.55;7.97;;;;;;;2.50;99.88;97428.31;5114888;28;20392;-70
2021/11/07 02:03:32;;;;;;;11.23;8.20;;;;;;;2.32;100.00;97438.78;5116028;28;20461;-69
2021/11/07 02:05:59;;;;;;;10.75;8.27;;;;;;;2.49;100.00;97432.69;5115442;28;20396;-70
2021/11/07 02:08:25;;;;;;;11.68;8.15;;;;;;;2.38;100.00;97422.63;5115788;28;20411;-70
2021/11/07 02:10:54;;;;;;;11.15;8.23;;;;;;;2.39;100.00;97426.03;5094211;28;20436;-70
2021/11/07 02:13:20;;;;;;;11.45;8.52;;;;;;;2.51;100.00;97414.38;5095010;28;20392;-70
2021/11/07 02:15:46;;;;;;;11.68;8.68;;;;;;;2.53;100.00;97394.34;5095085;28;20388;-70
2021/11/07 02:18:12;;;;;;;12.68;9.48;;;;;;;2.56;99.93;97375.13;5095194;28;20501;-70
2021/11/07 02:20:41;;;;;;;13.35;9.68;;;;;;;2.58;100.00;97371.38;5105731;28;20390;-70
2021/11/07 02:23:12;;;;;;;14.15;10.25;;;;;;;2.37;100.00;97379.63;5115095;28;20560;-71
2021/11/07 02:25:40;;;;;;;16.30;11.30;;;;;;;2.45;100.00;97373.66;5112601;28;20407;-70
2021/11/07 02:28:07;;;;;;;16.40;10.70;;;;;;;2.63;100.00;97366.53;5093077;28;20420;-70
2021/11/07 02:30:34;;;;;;;17.27;11.37;;;;;;;2.33;100.00;97362.00;5104476;28;20419;-70
2021/11/07 02:32:59;;;;;;;16.83;11.02;;;;;;;2.28;100.00;97362.50;5114717;28;20479;-70
2021/11/07 02:35:27;;;;;;;27.75;10.60;;;;;;;2.41;100.00;97351.66;5113137;28;20484;-70
2021/11/07 02:37:54;;;;;;;23.67;10.80;;;;;;;2.50;100.00;97356.69;5095304;28;20397;-70
2021/11/07 02:40:20;;;;;;;18.13;11.13;;;;;;;2.41;100.00;97359.41;5096383;28;20423;-70
2021/11/07 02:42:46;;;;;;;18.77;10.70;;;;;;;2.41;100.00;97362.81;5114408;28;20808;-70
2021/11/07 02:45:14;;;;;;;25.42;11.95;;;;;;;2.35;100.00;97370.41;5096447;28;20799;-70
2021/11/07 02:47:40;;;;;;;20.15;11.02;;;;;;;2.27;100.00;97371.22;5092680;28;20397;-70
2021/11/07 02:50:07;;;;;;;27.08;11.27;;;;;;;2.20;100.00;97372.00;5094425;28;20406;-70
2021/11/07 02:52:33;;;;;;;15.07;10.95;;;;;;;2.33;100.00;97369.78;5094145;28;20893;-70
2021/11/07 02:54:59;;;;;;;17.20;11.47;;;;;;;2.25;100.00;97357.63;5075474;28;20386;-70
2021/11/07 02:57:25;;;;;;;16.60;11.73;;;;;;;2.20;100.00;97361.66;5096187;28;20394;-70
2021/11/07 03:00:03;;;;;;;14.87;11.30;;;;;;;2.00;100.00;97356.81;5093311;28;20398;-70
2021/11/07 03:02:30;;;;;;;15.55;11.15;;;;;;;2.19;100.00;97372.97;5095878;28;20487;-70
2021/11/07 03:04:56;;;;;;;16.95;11.68;;;;;;;2.13;100.00;97386.53;5111791;28;20431;-70
2021/11/07 03:07:22;;;;;;;15.63;11.30;;;;;;;2.12;100.00;97388.31;5078517;28;20394;-71
2021/11/07 03:09:48;;;;;;;16.30;11.40;;;;;;;2.09;100.00;97393.81;5093872;28;20437;-70
2021/11/07 03:12:15;;;;;;;15.55;11.38;;;;;;;2.07;100.00;97388.78;5113053;28;20384;-70
2021/11/07 03:14:45;;;;;;;13.90;10.25;;;;;;;2.02;100.00;97382.47;5113874;28;20471;-70
2021/11/07 03:17:13;;;;;;;16.50;11.37;;;;;;;2.05;100.00;97370.06;5111562;28;20467;-70
2021/11/07 03:19:40;;;;;;;16.08;11.20;;;;;;;2.17;100.00;97367.97;5093960;28;20431;-70
2021/11/07 03:22:12;;;;;;;15.57;11.17;;;;;;;2.04;100.00;97383.94;5111414;28;20861;-70
2021/11/07 03:24:40;;;;;;;15.95;10.50;;;;;;;2.16;100.00;97386.22;5113425;28;20885;-70
2021/11/07 03:27:18;;;;;;;13.80;10.73;;;;;;;2.14;100.00;97383.78;5113237;28;20460;-70
2021/11/07 03:29:49;;;;;;;13.65;10.45;;;;;;;2.19;100.00;97380.72;5105876;28;20409;-71
2021/11/07 03:32:24;;;;;;;15.13;10.68;;;;;;;2.13;100.00;97374.41;5112531;28;20392;-70
2021/11/07 03:34:54;;;;;;;14.60;10.95;;;;;;;2.15;100.00;97379.44;5091820;28;20723;-70
2021/11/07 03:37:26;;;;;;;15.02;10.73;;;;;;;2.00;100.00;97382.66;5093685;28;20393;-70
2021/11/07 03:39:57;;;;;;;14.43;10.10;;;;;;;1.95;100.00;97387.47;5109486;28;20403;-70
2021/11/07 03:42:23;;;;;;;14.23;10.05;;;;;;;2.09;100.00;97380.88;5110851;28;20389;-70
2021/11/07 03:44:49;;;;;;;14.25;10.00;;;;;;;2.10;100.00;97379.91;5091564;28;20447;-70
2021/11/07 03:47:15;;;;;;;12.67;10.00;;;;;;;2.25;100.00;97375.72;5093044;28;20882;-70
2021/11/07 03:49:42;;;;;;;12.60;9.70;;;;;;;2.22;100.00;97373.47;5098629;28;20404;-70
2021/11/07 03:52:10;;;;;;;15.17;10.80;;;;;;;2.12;100.00;97370.22;5104080;28;20469;-70
2021/11/07 03:54:35;;;;;;;13.68;9.90;;;;;;;2.22;100.00;97370.88;5106282;28;20400;-69
2021/11/07 03:57:03;;;;;;;14.23;10.33;;;;;;;2.27;100.00;97362.66;5112963;28;20771;-70
2021/11/07 03:59:30;;;;;;;13.95;10.65;;;;;;;2.17;100.00;97370.56;5112449;28;20380;-70
2021/11/07 04:01:55;;;;;;;14.03;10.30;;;;;;;2.28;100.00;97352.16;5094405;28;20396;-70
2021/11/07 04:04:21;;;;;;;13.50;10.50;;;;;;;2.35;100.00;97358.28;5112737;28;20914;-70
2021/11/07 04:06:47;;;;;;;14.17;10.23;;;;;;;2.32;100.00;97358.59;5113529;28;20489;-70
2021/11/07 04:09:13;;;;;;;16.67;11.00;;;;;;;2.49;100.00;97344.72;5112696;28;20385;-70
2021/11/07 04:11:40;;;;;;;14.67;10.60;;;;;;;2.50;100.00;97337.78;5107329;28;20703;-70
2021/11/07 04:14:06;;;;;;;14.05;10.88;;;;;;;2.58;100.00;97342.91;5092768;28;20485;-70
2021/11/07 04:16:33;;;;;;;12.83;10.13;;;;;;;2.52;100.00;97338.41;5092557;28;20450;-70
2021/11/07 04:18:59;;;;;;;14.40;10.38;;;;;;;2.56;100.00;97331.13;5092902;28;20392;-70
2021/11/07 04:21:25;;;;;;;14.27;10.65;;;;;;;2.56;100.00;97328.53;5095996;28;20932;-70
2021/11/07 04:23:51;;;;;;;16.27;11.43;;;;;;;2.36;100.00;97321.09;5112751;28;20392;-70
2021/11/07 04:26:16;;;;;;;15.33;10.70;;;;;;;2.29;100.00;97327.06;5102549;28;20397;-70
2021/11/07 04:28:42;;;;;;;16.30;11.60;;;;;;;2.41;100.00;97341.31;5093304;28;20484;-71
2021/11/07 04:31:08;;;;;;;16.23;11.45;;;;;;;2.34;100.00;97343.72;5105001;28;20404;-70
2021/11/07 04:33:33;;;;;;;15.73;11.07;;;;;;;2.33;100.00;97341.31;5092719;28;20471;-70
2021/11/07 04:35:59;;;;;;;14.87;11.20;;;;;;;2.41;100.00;97344.69;5092206;28;20397;-70
2021/11/07 04:38:25;;;;;;;15.97;11.20;;;;;;;2.37;100.00;97337.44;5077525;28;20420;-70
2021/11/07 04:40:50;;;;;;;17.63;11.73;;;;;;;2.30;100.00;97332.09;5098198;28;20843;-70
2021/11/07 04:43:17;;;;;;;13.67;10.70;;;;;;;2.25;100.00;97324.00;5109566;28;20388;-70
2021/11/07 04:45:43;;;;;;;14.93;11.18;;;;;;;2.28;100.00;97318.53;5112232;28;20419;-70
2021/11/07 04:48:08;;;;;;;15.82;11.48;;;;;;;2.29;100.00;97307.19;5094176;28;20431;-70
2021/11/07 04:50:37;;;;;;;17.63;12.07;;;;;;;2.39;100.00;97314.81;5100195;28;20484;-71
2021/11/07 04:53:05;;;;;;;17.27;11.95;;;;;;;2.33;100.00;97313.69;5107728;28;20430;-70
2021/11/07 04:55:33;;;;;;;18.35;11.85;;;;;;;2.39;100.00;97305.28;5111571;28;20463;-70
2021/11/07 04:57:58;;;;;;;18.85;11.73;;;;;;;2.34;100.00;97301.56;5112204;28;20469;-70
2021/11/07 05:00:24;;;;;;;16.33;11.90;;;;;;;2.34;100.00;97292.00;5111235;28;20725;-70
2021/11/07 05:02:50;;;;;;;19.50;12.43;;;;;;;2.33;100.00;97282.66;5093546;28;20923;-70
2021/11/07 05:05:17;;;;;;;17.30;12.15;;;;;;;2.14;100.00;97284.72;5112017;28;20408;-70
2021/11/07 05:07:43;;;;;;;19.17;12.35;;;;;;;2.04;100.00;97283.13;5094002;28;20861;-69
2021/11/07 05:10:09;;;;;;;18.00;12.23;;;;;;;2.16;100.00;97281.03;5104204;28;20402;-70
2021/11/07 05:12:34;;;;;;;17.48;12.07;;;;;;;2.15;100.00;97291.53;5092157;28;20858;-69
2021/11/07 05:15:00;;;;;;;18.20;12.40;;;;;;;2.17;100.00;97292.19;5091806;28;20422;-70
2021/11/07 05:17:26;;;;;;;17.15;11.85;;;;;;;1.99;100.00;97290.56;5090699;28;20382;-70
2021/11/07 05:19:51;;;;;;;18.63;12.60;;;;;;;2.19;100.00;97283.28;5103648;28;20417;-70
2021/11/07 05:22:16;;;;;;;17.17;11.73;;;;;;;2.21;100.00;97289.09;5092379;28;20390;-70
2021/11/07 05:24:42;;;;;;;17.08;12.25;;;;;;;2.21;100.00;97283.13;5093539;28;20486;-70
2021/11/07 05:27:07;;;;;;;16.83;11.80;;;;;;;2.18;100.00;97283.44;5111982;28;20735;-70
2021/11/07 05:29:33;;;;;;;17.40;12.13;;;;;;;2.28;100.00;97284.09;5111515;28;20870;-70
2021/11/07 05:32:00;;;;;;;19.35;12.52;;;;;;;2.24;100.00;97286.19;5093624;28;20718;-70
2021/11/07 05:34:26;;;;;;;16.45;11.70;;;;;;;2.12;100.00;97284.88;5092334;28;20726;-70
2021/11/07 05:36:52;;;;;;;16.30;11.55;;;;;;;1.98;100.00;97288.94;5092295;28;20467;-69
2021/11/07 05:39:19;;;;;;;16.27;11.50;;;;;;;1.92;100.00;97281.81;5099944;28;20756;-70
2021/11/07 05:41:44;;;;;;;16.02;11.80;;;;;;;1.97;100.00;97287.31;5112117;28;20400;-70
2021/11/07 05:44:10;;;;;;;16.93;12.13;;;;;;;2.01;100.00;97291.19;5111312;28;20740;-69
2021/11/07 05:46:35;;;;;;;19.77;11.90;;;;;;;2.15;100.00;97279.41;5097959;28;20785;-70
2021/11/07 05:49:01;;;;;;;16.00;11.17;;;;;;;1.96;100.00;97280.53;5111591;28;20834;-70
2021/11/07 05:51:26;;;;;;;15.63;11.35;;;;;;;1.89;100.00;97274.41;5093529;28;20392;-70
2021/11/07 05:53:52;;;;;;;15.90;10.93;;;;;;;2.04;100.00;97259.84;5111629;28;20469;-70
2021/11/07 05:56:17;;;;;;;16.43;11.37;;;;;;;2.15;100.00;97252.75;5092901;28;20394;-70
2021/11/07 05:58:43;;;;;;;16.43;11.43;;;;;;;2.04;100.00;97244.34;5086068;28;20827;-70
2021/11/07 06:01:09;;;;;;;16.83;11.35;;;;;;;1.97;100.00;97234.81;5094689;28;20445;-70
2021/11/07 06:03:35;;;;;;;15.23;11.32;;;;;;;2.07;100.00;97238.03;5104965;28;20400;-70
2021/11/07 06:06:01;;;;;;;16.40;11.77;;;;;;;1.89;100.00;97242.56;5111205;28;20440;-70
2021/11/07 06:08:26;;;;;;;15.73;11.05;;;;;;;1.97;100.00;97245.16;5111739;28;20380;-70
2021/11/07 06:10:52;;;;;;;12.60;8.93;;;;;;;1.83;100.00;97244.03;5112600;28;20664;-70
2021/11/07 06:13:17;;;;;;;13.40;8.43;;;;;;;1.74;100.00;97242.38;5100507;28;20176;-69
2021/11/07 06:15:43;;;;;;;14.50;8.67;;;;;;;1.72;100.00;97241.75;5092695;28;20268;-70
2021/11/07 06:18:09;;;;;;;19.80;12.07;;;;;;;1.66;100.00;97234.63;5091251;28;20413;-70
2021/11/07 06:20:35;;;;;;;19.08;12.70;;;;;;;1.74;100.00;97226.88;5073095;28;20807;-69
2021/11/07 06:23:04;;;;;;;14.47;9.23;;;;;;;1.74;100.00;97223.50;5094294;28;20599;-70
2021/11/07 06:25:30;;;;;;;16.37;9.40;;;;;;;1.57;100.00;97226.06;5112244;28;20183;-70
2021/11/07 06:27:55;;;;;;;17.10;10.37;;;;;;;1.62;100.00;97228.97;5090631;28;20645;-70
2021/11/07 06:30:21;;;;;;;15.83;10.30;;;;;;;1.64;100.00;97215.91;5090549;28;20305;-70
2021/11/07 06:32:47;;;;;;;21.70;10.07;;;;;;;1.78;100.00;97212.69;5107196;28;20198;-70
2021/11/07 06:35:13;;;;;;;22.27;12.93;;;;;;;1.73;100.00;97209.75;5111820;28;20408;-69
2021/11/07 06:37:41;;;;;;;19.70;13.80;;;;;;;1.83;100.00;97207.84;5113583;28;20388;-70
2021/11/07 06:40:08;;;;;;;18.63;12.57;;;;;;;2.02;100.00;97202.34;5094674;28;20398;-70
2021/11/07 06:42:33;;;;;;;17.50;12.25;;;;;;;2.19;100.00;97199.72;5106469;28;20388;-70
2021/11/07 06:44:59;;;;;;;17.13;12.13;;;;;;;2.19;100.00;97207.50;5093091;28;20811;-70
2021/11/07 06:47:25;;;;;;;18.27;11.95;;;;;;;2.34;100.00;97195.53;5095605;28;20459;-70
2021/11/07 06:49:51;;;;;;;17.98;11.88;;;;;;;2.45;100.00;97190.78;5094160;28;20398;-69
2021/11/07 06:52:16;;;;;;;16.30;11.68;;;;;;;2.47;100.00;97188.84;5094399;28;20793;-69
2021/11/07 06:54:42;;;;;;;16.55;11.68;;;;;;;2.64;100.00;97199.16;5092937;28;20394;-69
2021/11/07 06:57:07;;;;;;;16.23;10.93;;;;;;;2.76;100.00;97210.75;5106292;28;20434;-70
2021/11/07 06:59:33;;;;;;;15.03;10.63;;;;;;;3.03;100.00;97204.34;5092686;28;20444;-70
2021/11/07 07:01:58;;;;;;;14.32;10.60;;;;;;;3.05;100.00;97203.22;5106225;28;20475;-70
2021/11/07 07:04:24;;;;;;;14.75;10.68;;;;;;;3.26;99.67;97200.03;5111029;28;21307;-70
2021/11/07 07:06:50;;;;;;;14.18;10.07;;;;;;;3.20;100.00;97209.28;5094328;28;20750;-69
2021/11/07 07:09:22;;;;;;;12.60;9.77;;;;;;;3.48;98.95;97201.03;5098399;28;20391;-69
2021/11/07 07:11:51;;;;;;;13.50;10.27;;;;;;;3.54;97.81;97190.78;5112779;28;20435;-69
2021/11/07 07:17:17;;;;;;;13.90;9.48;;;;;;;3.67;96.69;97177.25;5105291;28;21049;-66
2021/11/07 07:23:17;;;;;;;21.97;13.43;;;;;;;5.68;90.64;97167.34;5094635;28;20774;-68
2021/11/07 07:28:46;;;;;;;15.63;8.40;;;;;;;4.24;93.78;97177.56;5103498;28;20188;-68
2021/11/07 07:35:47;;;;;;;14.57;10.38;;;;;;;4.35;94.21;97181.50;5078929;28;20769;-67
2021/11/07 07:38:13;;;;;;;13.73;8.17;;;;;;;4.33;93.16;97176.50;5093197;28;20181;-67
2021/11/07 07:40:38;;;;;;;11.60;8.30;;;;;;;4.18;94.82;97171.28;5094762;28;20200;-67
2021/11/07 07:43:04;;;;;;;12.03;7.87;;;;;;;4.09;95.21;97172.34;5113003;28;20184;-66
2021/11/07 07:45:30;;;;;;;11.27;7.93;;;;;;;4.11;96.07;97173.00;5094779;28;20177;-66
2021/11/07 07:47:56;;;;;;;14.10;8.30;;;;;;;4.28;95.16;97178.84;5094332;28;20181;-65
2021/11/07 07:50:23;;;;;;;12.67;8.13;;;;;;;4.50;94.64;97179.75;5094734;28;20201;-66
2021/11/07 07:52:49;;;;;;;11.23;7.73;;;;;;;4.80;93.00;97202.09;5113683;28;21077;-65
2021/11/07 07:55:16;;;;;;;12.43;8.37;;;;;;;5.22;91.70;97203.22;5095796;28;20660;-67
2021/11/07 07:57:42;;;;;;;13.10;8.07;;;;;;;5.46;89.69;97208.13;5113771;28;20589;-67
2021/11/07 08:00:10;;;;;;;12.00;7.87;;;;;;;5.64;88.62;97221.47;5096278;28;20198;-68
2021/11/07 08:02:36;;;;;;;13.27;7.83;;;;;;;5.84;88.11;97212.09;5095979;28;20648;-68
2021/11/07 08:05:01;;;;;;;11.20;7.30;;;;;;;5.95;87.01;97210.00;5093865;28;20217;-69
2021/11/07 08:07:27;;;;;;;13.40;7.67;;;;;;;5.84;86.85;97200.88;5094000;28;20184;-69
2021/11/07 08:09:56;;;;;;;11.47;7.00;;;;;;;5.87;87.33;97197.94;5092837;28;20211;-68
2021/11/07 08:12:22;;;;;;;12.83;7.43;;;;;;;5.92;87.66;97199.97;5096162;28;20278;-68
2021/11/07 08:14:49;;;;;;;12.00;9.37;;;;;;;5.74;88.88;97201.19;5112482;28;20455;-69
2021/11/07 08:17:15;;;;;;;12.23;8.82;;;;;;;5.28;89.99;97203.31;5110446;28;20393;-69
2021/11/07 08:19:40;;;;;;;12.47;9.20;;;;;;;5.52;89.51;97189.16;5113049;28;20445;-68
2021/11/07 08:22:07;;;;;;;12.07;9.13;;;;;;;5.52;88.86;97183.97;5098677;28;20377;-68
2021/11/07 08:24:35;;;;;;;13.10;8.98;;;;;;;5.63;88.83;97190.50;5092712;28;20480;-68
2021/11/07 08:27:01;;;;;;;11.82;8.45;;;;;;;5.41;90.09;97179.25;5079806;28;20487;-68
2021/11/07 08:29:27;;;;;;;12.20;9.10;;;;;;;5.55;88.89;97170.59;5112683;28;20392;-67
2021/11/07 08:31:53;;;;;;;12.23;8.52;;;;;;;5.48;88.75;97163.72;5101208;28;20443;-68
2021/11/07 08:34:23;;;;;;;12.70;8.63;;;;;;;5.47;88.70;97138.72;5097247;28;20390;-69
2021/11/07 08:37:10;;;;;;;11.57;8.75;;;;;;;5.45;89.35;97131.13;5112164;28;20865;-67
2021/11/07 08:39:47;;;;;;;12.13;8.95;;;;;;;5.39;89.35;97134.47;5091539;28;20401;-67
2021/11/07 08:42:16;;;;;;;10.60;8.15;;;;;;;5.25;90.65;97117.91;5092391;28;20394;-67
2021/11/07 09:06:58;;;;;;;9.95;7.68;;;;;;;5.54;87.90;97126.59;5112230;28;20537;-68
2021/11/07 09:09:32;;;;;;;10.52;7.80;;;;;;;5.53;87.57;97125.78;5112088;28;20732;-68
2021/11/07 09:11:58;;;;;;;10.05;7.70;;;;;;;5.70;86.87;97121.13;5073631;28;20447;-69
2021/11/07 09:14:34;;;;;;;9.73;7.22;;;;;;;5.77;85.76;97104.59;5103172;28;20399;-67
2021/11/07 09:17:02;;;;;;;10.55;7.60;;;;;;;5.91;85.41;97089.91;5111921;28;20414;-68
2021/11/07 09:19:28;;;;;;;9.73;6.83;;;;;;;6.12;85.28;97089.06;5076481;28;20201;-67
2021/11/07 09:22:03;;;;;;;8.47;6.33;;;;;;;6.10;85.32;97084.03;5092794;28;20717;-66
2021/11/07 09:37:38;;;;;;;7.90;5.30;;;;;;;7.37;78.54;97100.75;5092197;28;20184;-67
2021/11/07 09:40:11;;;;;;;6.23;4.77;;;;;;;7.39;77.92;97103.19;5093188;28;20237;-67
2021/11/07 09:45:15;;;;;;;5.63;4.30;;;;;;;7.52;77.92;97095.38;5108103;28;20190;-67
2021/11/07 09:47:45;;;;;;;5.60;4.20;;;;;;;7.67;76.60;97090.78;5097878;28;20168;-68
2021/11/07 09:50:13;;;;;;;6.47;4.87;;;;;;;7.78;75.53;97079.72;5092767;28;20289;-68
2021/11/07 09:52:45;;;;;;;5.17;3.83;;;;;;;7.93;73.76;97074.28;5077125;28;20207;-68
2021/11/07 09:55:12;;;;;;;4.73;4.03;;;;;;;8.11;74.31;97071.06;5079500;28;20520;-67
2021/11/07 09:57:37;;;;;;;5.37;3.70;;;;;;;8.21;73.83;97063.59;5107873;28;20575;-68
2021/11/07 10:00:11;;;;;;;4.27;3.47;;;;;;;8.29;72.12;97066.00;5096795;28;20187;-69
2021/11/07 10:02:38;;;;;;;4.63;3.97;;;;;;;8.66;71.62;97065.31;5094447;28;20185;-68
2021/11/07 10:05:04;;;;;;;5.93;3.50;;;;;;;8.54;71.56;97072.19;5092490;28;20237;-68
2021/11/07 10:07:34;;;;;;;4.78;3.75;;;;;;;8.72;70.60;97063.66;5107067;28;20879;-68
2021/11/07 10:10:08;;;;;;;4.25;3.85;;;;;;;8.74;70.54;97067.69;5059969;28;20889;-68
2021/11/07 10:15:06;;;;;;;4.20;3.80;;;;;;;8.44;71.51;97076.22;5094902;28;20426;-67
2021/11/07 10:17:41;;;;;;;3.90;3.50;;;;;;;8.55;71.48;97080.81;5095243;28;20390;-67
2021/11/07 10:22:42;;;;;;;3.70;3.35;;;;;;;8.88;68.60;97071.03;5114953;28;20477;-67
2021/11/07 10:25:16;;;;;;;3.17;2.80;;;;;;;8.91;68.75;97069.84;5115065;28;20392;-67
2021/11/07 10:27:42;;;;;;;4.03;3.22;;;;;;;8.98;68.90;97062.72;5098171;28;20390;-68
2021/11/07 10:30:16;;;;;;;3.63;3.30;;;;;;;9.15;68.48;97050.78;5095442;28;20412;-67
2021/11/07 10:32:55;;;;;;;4.75;3.53;;;;;;;9.33;68.09;97056.09;5094967;28;20452;-68
2021/11/07 10:35:39;;;;;;;3.87;3.20;;;;;;;9.44;67.63;97052.00;5096511;28;20200;-66
2021/11/07 10:41:45;;;;;;;3.00;2.70;;;;;;;9.56;67.93;97050.28;5084733;28;20723;-68
2021/11/07 10:52:30;;;;;;;5.03;2.57;;;;;;;10.10;66.84;97033.09;5098470;28;20199;-67
2021/11/07 10:54:56;;;;;;;4.50;3.00;;;;;;;10.11;66.35;97030.25;5093228;28;20212;-67
2021/11/07 10:57:27;;;;;;;5.60;3.50;;;;;;;9.99;66.20;97034.59;5095827;28;20267;-67
2021/11/07 11:00:27;;;;;;;5.63;3.57;;;;;;;9.97;66.38;97031.41;5100075;28;20547;-67
2021/11/07 11:02:56;;;;;;;5.07;3.00;;;;;;;10.13;67.09;97023.00;5114706;28;20180;-67
2021/11/07 11:08:52;;;;;;;4.03;3.20;;;;;;;10.76;65.59;97013.00;5075493;28;20540;-68
2021/11/07 11:11:28;;;;;;;2.97;2.43;;;;;;;10.98;65.21;97005.44;5085012;28;20189;-68
2021/11/07 11:26:52;;;;;;;2.63;2.43;;;;;;;10.82;64.73;97025.22;5105376;28;20182;-67
2021/11/07 11:34:14;;;;;;;2.90;2.07;;;;;;;11.33;63.39;97004.72;5114721;28;20259;-68
2021/11/07 11:36:48;;;;;;;2.27;2.07;;;;;;;11.33;63.87;97017.84;5102610;28;20210;-68
2021/11/07 11:39:21;;;;;;;2.30;2.10;;;;;;;11.36;63.24;97015.59;5094434;28;20264;-67
2021/11/07 11:41:59;;;;;;;1.80;1.70;;;;;;;11.41;62.84;97010.47;5093974;28;20185;-68
2021/11/07 11:44:26;;;;;;;1.30;1.30;;;;;;;11.38;62.27;96996.97;5092906;28;20169;-68
2021/11/07 11:47:15;;;;;;;2.27;1.60;;;;;;;11.26;62.88;96989.88;5092555;28;20177;-69
2021/11/07 11:50:09;;;;;;;1.57;1.47;;;;;;;11.04;63.68;96985.38;5095566;28;20559;-68
2021/11/07 11:52:42;;;;;;;1.10;1.10;;;;;;;11.07;63.17;96977.06;5097952;28;20173;-68
2021/11/07 11:57:53;;;;;;;0.90;0.90;;;;;;;10.84;63.05;96975.19;5093842;28;20197;-68
2021/11/07 12:00:49;;;;;;;0.90;0.90;;;;;;;10.68;64.56;96973.19;5095567;28;20168;-68
2021/11/07 12:06:26;;;;;;;1.13;0.90;;;;;;;10.66;65.22;96959.50;5094065;28;20597;-68
2021/11/07 12:12:18;;;;;;;0.70;0.70;;;;;;;10.50;66.29;96966.16;5104737;28;20760;-68
2021/11/07 12:17:48;;;;;;;1.10;1.00;;;;;;;10.59;66.16;96956.97;5106353;28;20647;-68
2021/11/07 12:20:25;;;;;;;1.00;1.00;;;;;;;10.62;66.22;96959.16;5093875;28;20181;-68
2021/11/07 12:23:17;;;;;;;1.83;1.00;;;;;;;10.55;66.06;96947.94;5109620;28;20226;-68
2021/11/07 12:25:44;;;;;;;0.80;0.80;;;;;;;10.54;66.50;96943.72;5095371;28;20701;-68
2021/11/07 12:28:10;;;;;;;1.07;1.07;;;;;;;10.60;67.51;96942.84;5113356;28;20186;-68
2021/11/07 12:30:39;;;;;;;0.83;0.83;;;;;;;10.77;66.16;96949.06;5112817;28;20191;-69
2021/11/07 12:33:17;;;;;;;0.83;0.83;;;;;;;10.95;65.19;96945.56;5110546;28;20550;-68
2021/11/07 12:36:12;;;;;;;1.17;1.07;;;;;;;11.21;65.19;96942.53;5113401;28;20176;-68
2021/11/07 12:41:26;;;;;;;1.17;1.07;;;;;;;11.96;62.29;96950.56;5093358;28;20593;-66
2021/11/07 12:43:53;;;;;;;0.97;0.90;;;;;;;12.00;61.92;96946.44;5094812;28;20190;-68
2021/11/07 12:49:15;;;;;;;0.90;0.90;;;;;;;12.13;61.80;96941.97;5102522;28;20192;-68
2021/11/07 12:51:46;;;;;;;1.73;0.80;;;;;;;11.80;62.83;96932.09;5092962;28;20211;-67
2021/11/07 12:54:31;;;;;;;0.70;0.70;;;;;;;11.50;63.90;96926.91;5094161;28;20317;-67
2021/11/07 12:57:06;;;;;;;0.70;0.70;;;;;;;11.46;64.44;96926.59;5097801;28;20657;-67
2021/11/07 12:59:47;;;;;;;0.70;0.70;;;;;;;11.24;65.69;96936.03;5093126;28;20191;-66
2021/11/07 13:02:22;;;;;;;1.47;0.90;;;;;;;11.18;66.63;96929.06;5092924;28;20212;-67
2021/11/07 13:05:08;;;;;;;1.20;0.73;;;;;;;11.39;65.87;96928.53;5097768;28;20219;-66
2021/11/07 13:07:45;;;;;;;0.60;0.60;;;;;;;11.47;66.34;96933.44;5111349;28;20180;-67
2021/11/07 13:10:19;;;;;;;2.53;1.00;;;;;;;11.48;65.61;96937.66;5112873;28;20195;-67
2021/11/07 13:12:51;;;;;;;1.67;0.70;;;;;;;11.60;65.09;96938.44;5092569;28;20170;-67
2021/11/07 13:31:42;;;;;;;1.93;0.80;;;;;;;11.28;70.27;96916.19;5048011;28;20267;-66
2021/11/07 13:34:11;;;;;;;0.83;0.83;;;;;;;11.06;71.29;96915.16;5025235;28;20199;-66
2021/11/07 13:36:41;;;;;;;0.83;0.77;;;;;;;11.37;70.53;96924.53;5030017;28;20414;-67
2021/11/07 13:39:09;;;;;;;0.70;0.70;;;;;;;11.28;70.67;96921.44;5045258;28;20218;-67
2021/11/07 13:41:35;;;;;;;0.50;0.50;;;;;;;11.33;71.36;96926.81;5032109;28;20198;-66
2021/11/07 13:44:06;;;;;;;1.10;0.70;;;;;;;10.96;73.32;96931.44;5030710;28;20183;-66
2021/11/07 13:46:35;;;;;;;0.60;0.60;;;;;;;10.94;73.94;96925.63;5034214;28;20213;-67
2021/11/07 13:49:04;;;;;;;1.03;0.80;;;;;;;10.79;74.33;96917.38;5051634;28;20177;-66
2021/11/07 13:51:31;;;;;;;0.50;0.50;;;;;;;10.67;74.67;96927.81;5038375;28;20214;-66
2021/11/07 13:54:02;;;;;;;0.97;0.50;;;;;;;10.59;74.66;96916.88;5033607;28;20198;-66
2021/11/07 13:56:29;;;;;;;1.00;0.80;;;;;;;10.71;74.30;96915.06;5048434;28;20190;-66
2021/11/07 13:58:55;;;;;;;0.80;0.80;;;;;;;10.57;74.69;96918.91;5026789;28;20189;-66
2021/11/07 14:01:20;;;;;;;1.60;0.90;;;;;;;10.59;74.61;96917.63;5101646;28;20206;-66